sensor_id;sensor_type;location;lat;lon;timestamp;temperature;humidity
6581;DHT22;3324;50.796;7.228;2023-07-13T00:00:35;19.30;99.90
6581;DHT22;3324;50.796;7.228;2023-07-13T00:03:01;19.20;99.90
6581;DHT22;3324;50.796;7.228;2023-07-13T00:05:27;19.20;99.90
6581;DHT22;3324;50.796;7.228;2023-07-13T00:07:53;19.20;99.90
6581;DHT22;3324;50.796;7.228;2023-07-13T00:10:20;19.20;99.90
6581;DHT22;3324;50.796;7.228;2023-07-13T00:12:47;19.20;99.90
6581;DHT22;3324;50.796;7.228;2023-07-13T00:15:22;19.10;99.90
6581;DHT22;3324;50.796;7.228;2023-07-13T00:17:53;19.10;99.90
6581;DHT22;3324;50.796;7.228;2023-07-13T00:20:22;18.90;99.90
6581;DHT22;3324;50.796;7.228;2023-07-13T00:22:49;18.90;99.90
6581;DHT22;3324;50.796;7.228;2023-07-13T00:25:15;18.90;99.90
6581;DHT22;3324;50.796;7.228;2023-07-13T00:27:42;18.90;99.90
6581;DHT22;3324;50.796;7.228;2023-07-13T00:30:09;18.90;99.90
6581;DHT22;3324;50.796;7.228;2023-07-13T00:32:35;18.90;99.90
6581;DHT22;3324;50.796;7.228;2023-07-13T00:35:03;18.80;99.90
6581;DHT22;3324;50.796;7.228;2023-07-13T00:37:31;18.80;99.90
6581;DHT22;3324;50.796;7.228;2023-07-13T00:39:57;18.70;99.90
6581;DHT22;3324;50.796;7.228;2023-07-13T00:42:23;18.70;99.90
6581;DHT22;3324;50.796;7.228;2023-07-13T00:47:51;18.60;99.90
6581;DHT22;3324;50.796;7.228;2023-07-13T00:50:18;18.60;99.90
6581;DHT22;3324;50.796;7.228;2023-07-13T00:52:47;18.50;99.90
6581;DHT22;3324;50.796;7.228;2023-07-13T00:55:14;18.40;99.90
6581;DHT22;3324;50.796;7.228;2023-07-13T00:57:41;18.40;99.90
6581;DHT22;3324;50.796;7.228;2023-07-13T01:00:08;18.40;99.90
6581;DHT22;3324;50.796;7.228;2023-07-13T01:02:36;18.40;99.90
6581;DHT22;3324;50.796;7.228;2023-07-13T01:05:13;18.40;99.90
6581;DHT22;3324;50.796;7.228;2023-07-13T01:07:40;18.40;99.90
6581;DHT22;3324;50.796;7.228;2023-07-13T01:10:07;18.30;99.90
6581;DHT22;3324;50.796;7.228;2023-07-13T01:12:33;18.30;99.90
6581;DHT22;3324;50.796;7.228;2023-07-13T01:14:59;18.30;99.90
6581;DHT22;3324;50.796;7.228;2023-07-13T01:17:26;18.30;99.90
6581;DHT22;3324;50.796;7.228;2023-07-13T01:19:52;18.20;99.90
6581;DHT22;3324;50.796;7.228;2023-07-13T01:22:18;18.20;99.90
6581;DHT22;3324;50.796;7.228;2023-07-13T01:24:46;18.10;99.90
6581;DHT22;3324;50.796;7.228;2023-07-13T01:27:15;18.10;99.90
6581;DHT22;3324;50.796;7.228;2023-07-13T01:29:44;18.10;99.90
6581;DHT22;3324;50.796;7.228;2023-07-13T01:32:16;18.00;99.90
6581;DHT22;3324;50.796;7.228;2023-07-13T01:34:42;18.00;99.90
6581;DHT22;3324;50.796;7.228;2023-07-13T01:37:10;17.90;99.90
6581;DHT22;3324;50.796;7.228;2023-07-13T01:39:36;17.80;99.90
6581;DHT22;3324;50.796;7.228;2023-07-13T01:42:03;17.70;99.90
6581;DHT22;3324;50.796;7.228;2023-07-13T01:44:28;17.70;99.90
6581;DHT22;3324;50.796;7.228;2023-07-13T01:46:54;17.70;99.90
6581;DHT22;3324;50.796;7.228;2023-07-13T01:49:20;17.60;99.90
6581;DHT22;3324;50.796;7.228;2023-07-13T01:51:45;17.50;99.90
6581;DHT22;3324;50.796;7.228;2023-07-13T01:54:11;17.50;99.90
6581;DHT22;3324;50.796;7.228;2023-07-13T01:56:36;17.60;99.90
6581;DHT22;3324;50.796;7.228;2023-07-13T01:59:02;17.50;99.90
6581;DHT22;3324;50.796;7.228;2023-07-13T02:01:28;17.50;99.90
6581;DHT22;3324;50.796;7.228;2023-07-13T02:03:53;17.40;99.90
6581;DHT22;3324;50.796;7.228;2023-07-13T02:06:19;17.50;99.90
6581;DHT22;3324;50.796;7.228;2023-07-13T02:08:44;17.50;99.90
6581;DHT22;3324;50.796;7.228;2023-07-13T02:11:10;17.50;99.90
6581;DHT22;3324;50.796;7.228;2023-07-13T02:13:36;17.50;99.90
6581;DHT22;3324;50.796;7.228;2023-07-13T02:16:01;17.50;99.90
6581;DHT22;3324;50.796;7.228;2023-07-13T02:18:27;17.40;99.90
6581;DHT22;3324;50.796;7.228;2023-07-13T02:20:52;17.40;99.90
6581;DHT22;3324;50.796;7.228;2023-07-13T02:23:18;17.30;99.90
6581;DHT22;3324;50.796;7.228;2023-07-13T02:25:45;17.30;99.90
6581;DHT22;3324;50.796;7.228;2023-07-13T02:28:11;17.20;99.90
6581;DHT22;3324;50.796;7.228;2023-07-13T02:30:37;17.20;99.90
6581;DHT22;3324;50.796;7.228;2023-07-13T02:33:04;17.30;99.90
6581;DHT22;3324;50.796;7.228;2023-07-13T02:35:30;17.30;99.90
6581;DHT22;3324;50.796;7.228;2023-07-13T02:37:56;17.30;99.90
6581;DHT22;3324;50.796;7.228;2023-07-13T02:40:21;17.40;99.90
6581;DHT22;3324;50.796;7.228;2023-07-13T02:42:47;17.40;99.90
6581;DHT22;3324;50.796;7.228;2023-07-13T02:45:13;17.40;99.90
6581;DHT22;3324;50.796;7.228;2023-07-13T02:47:41;17.40;99.90
6581;DHT22;3324;50.796;7.228;2023-07-13T02:50:07;17.30;99.90
6581;DHT22;3324;50.796;7.228;2023-07-13T02:52:32;17.40;99.90
6581;DHT22;3324;50.796;7.228;2023-07-13T02:54:58;17.30;99.90
6581;DHT22;3324;50.796;7.228;2023-07-13T02:57:24;17.40;99.90
6581;DHT22;3324;50.796;7.228;2023-07-13T02:59:49;17.40;99.90
6581;DHT22;3324;50.796;7.228;2023-07-13T03:02:15;17.30;99.90
6581;DHT22;3324;50.796;7.228;2023-07-13T03:04:41;17.20;99.90
6581;DHT22;3324;50.796;7.228;2023-07-13T03:07:07;17.10;99.90
6581;DHT22;3324;50.796;7.228;2023-07-13T03:09:34;17.20;99.90
6581;DHT22;3324;50.796;7.228;2023-07-13T03:11:59;17.10;99.90
6581;DHT22;3324;50.796;7.228;2023-07-13T03:14:26;17.10;99.90
6581;DHT22;3324;50.796;7.228;2023-07-13T03:16:52;17.00;99.90
6581;DHT22;3324;50.796;7.228;2023-07-13T03:19:18;17.00;99.90
6581;DHT22;3324;50.796;7.228;2023-07-13T03:21:44;16.90;99.90
6581;DHT22;3324;50.796;7.228;2023-07-13T03:24:09;17.00;99.90
6581;DHT22;3324;50.796;7.228;2023-07-13T03:26:35;17.00;99.90
6581;DHT22;3324;50.796;7.228;2023-07-13T03:29:01;17.00;99.90
6581;DHT22;3324;50.796;7.228;2023-07-13T03:31:28;17.10;99.90
6581;DHT22;3324;50.796;7.228;2023-07-13T03:33:55;17.10;99.90
6581;DHT22;3324;50.796;7.228;2023-07-13T03:36:24;17.10;99.90
6581;DHT22;3324;50.796;7.228;2023-07-13T03:38:52;17.20;99.90
6581;DHT22;3324;50.796;7.228;2023-07-13T03:41:19;17.20;99.90
6581;DHT22;3324;50.796;7.228;2023-07-13T03:43:44;17.20;99.90
6581;DHT22;3324;50.796;7.228;2023-07-13T03:46:10;17.20;99.90
6581;DHT22;3324;50.796;7.228;2023-07-13T03:48:36;17.20;99.90
6581;DHT22;3324;50.796;7.228;2023-07-13T03:51:02;17.10;99.90
6581;DHT22;3324;50.796;7.228;2023-07-13T03:53:28;17.20;99.90
6581;DHT22;3324;50.796;7.228;2023-07-13T03:55:53;17.20;99.90
6581;DHT22;3324;50.796;7.228;2023-07-13T03:58:28;17.30;99.90
6581;DHT22;3324;50.796;7.228;2023-07-13T04:00:55;17.30;99.90
6581;DHT22;3324;50.796;7.228;2023-07-13T04:03:21;17.20;99.90
6581;DHT22;3324;50.796;7.228;2023-07-13T04:05:46;17.20;99.90
6581;DHT22;3324;50.796;7.228;2023-07-13T04:08:12;17.30;99.90
6581;DHT22;3324;50.796;7.228;2023-07-13T04:10:38;17.30;99.90
6581;DHT22;3324;50.796;7.228;2023-07-13T04:13:04;17.40;99.90
6581;DHT22;3324;50.796;7.228;2023-07-13T04:15:31;17.50;99.90
6581;DHT22;3324;50.796;7.228;2023-07-13T04:17:57;17.50;99.90
6581;DHT22;3324;50.796;7.228;2023-07-13T04:20:23;17.50;99.90
6581;DHT22;3324;50.796;7.228;2023-07-13T04:22:49;17.60;99.90
6581;DHT22;3324;50.796;7.228;2023-07-13T04:25:15;17.60;99.90
6581;DHT22;3324;50.796;7.228;2023-07-13T04:27:40;17.70;99.90
6581;DHT22;3324;50.796;7.228;2023-07-13T04:30:07;17.80;99.90
6581;DHT22;3324;50.796;7.228;2023-07-13T04:32:33;17.80;99.90
6581;DHT22;3324;50.796;7.228;2023-07-13T04:34:59;17.90;99.90
6581;DHT22;3324;50.796;7.228;2023-07-13T04:37:26;17.90;99.90
6581;DHT22;3324;50.796;7.228;2023-07-13T04:39:51;18.00;99.90
6581;DHT22;3324;50.796;7.228;2023-07-13T04:42:18;18.10;99.90
6581;DHT22;3324;50.796;7.228;2023-07-13T04:44:50;18.10;99.90
6581;DHT22;3324;50.796;7.228;2023-07-13T04:47:17;18.20;99.90
6581;DHT22;3324;50.796;7.228;2023-07-13T04:49:43;18.20;99.90
6581;DHT22;3324;50.796;7.228;2023-07-13T04:52:09;18.30;99.90
6581;DHT22;3324;50.796;7.228;2023-07-13T04:54:35;18.30;99.90
6581;DHT22;3324;50.796;7.228;2023-07-13T04:57:01;18.40;99.90
6581;DHT22;3324;50.796;7.228;2023-07-13T04:59:27;18.50;99.90
6581;DHT22;3324;50.796;7.228;2023-07-13T05:01:53;18.60;99.90
6581;DHT22;3324;50.796;7.228;2023-07-13T05:04:18;18.70;99.90
6581;DHT22;3324;50.796;7.228;2023-07-13T05:06:44;18.70;99.90
6581;DHT22;3324;50.796;7.228;2023-07-13T05:09:10;18.70;99.90
6581;DHT22;3324;50.796;7.228;2023-07-13T05:11:35;18.80;99.90
6581;DHT22;3324;50.796;7.228;2023-07-13T05:14:01;18.80;99.90
6581;DHT22;3324;50.796;7.228;2023-07-13T05:16:27;18.80;99.90
6581;DHT22;3324;50.796;7.228;2023-07-13T05:18:53;18.90;99.90
6581;DHT22;3324;50.796;7.228;2023-07-13T05:21:19;19.00;99.90
6581;DHT22;3324;50.796;7.228;2023-07-13T05:23:45;19.00;99.90
6581;DHT22;3324;50.796;7.228;2023-07-13T05:26:11;19.00;99.90
6581;DHT22;3324;50.796;7.228;2023-07-13T05:28:37;19.00;99.90
6581;DHT22;3324;50.796;7.228;2023-07-13T05:31:04;19.10;99.90
6581;DHT22;3324;50.796;7.228;2023-07-13T05:33:30;19.10;99.90
6581;DHT22;3324;50.796;7.228;2023-07-13T05:35:56;19.00;99.90
6581;DHT22;3324;50.796;7.228;2023-07-13T05:38:21;19.00;99.90
6581;DHT22;3324;50.796;7.228;2023-07-13T05:40:47;19.00;99.90
6581;DHT22;3324;50.796;7.228;2023-07-13T05:43:13;19.00;99.90
6581;DHT22;3324;50.796;7.228;2023-07-13T05:45:40;19.10;99.90
6581;DHT22;3324;50.796;7.228;2023-07-13T05:48:06;19.10;99.90
6581;DHT22;3324;50.796;7.228;2023-07-13T05:50:31;19.10;99.90
6581;DHT22;3324;50.796;7.228;2023-07-13T05:52:57;19.10;99.90
6581;DHT22;3324;50.796;7.228;2023-07-13T05:55:23;19.20;99.90
6581;DHT22;3324;50.796;7.228;2023-07-13T05:57:49;19.40;99.90
6581;DHT22;3324;50.796;7.228;2023-07-13T06:00:15;19.50;99.90
6581;DHT22;3324;50.796;7.228;2023-07-13T06:02:42;19.60;99.90
6581;DHT22;3324;50.796;7.228;2023-07-13T06:05:08;19.60;99.90
6581;DHT22;3324;50.796;7.228;2023-07-13T06:07:34;19.70;99.90
6581;DHT22;3324;50.796;7.228;2023-07-13T06:09:59;19.70;99.90
6581;DHT22;3324;50.796;7.228;2023-07-13T06:12:26;19.80;99.90
6581;DHT22;3324;50.796;7.228;2023-07-13T06:14:52;19.90;99.90
6581;DHT22;3324;50.796;7.228;2023-07-13T06:17:17;20.00;99.90
6581;DHT22;3324;50.796;7.228;2023-07-13T06:19:43;20.20;99.90
6581;DHT22;3324;50.796;7.228;2023-07-13T06:22:09;20.00;99.90
6581;DHT22;3324;50.796;7.228;2023-07-13T06:24:34;19.90;99.90
6581;DHT22;3324;50.796;7.228;2023-07-13T06:27:00;19.90;99.90
6581;DHT22;3324;50.796;7.228;2023-07-13T06:29:26;19.80;99.90
6581;DHT22;3324;50.796;7.228;2023-07-13T06:31:51;19.80;99.90
6581;DHT22;3324;50.796;7.228;2023-07-13T06:34:17;19.90;99.90
6581;DHT22;3324;50.796;7.228;2023-07-13T06:36:43;19.90;99.90
6581;DHT22;3324;50.796;7.228;2023-07-13T06:39:08;20.10;99.90
6581;DHT22;3324;50.796;7.228;2023-07-13T06:41:34;20.30;99.90
6581;DHT22;3324;50.796;7.228;2023-07-13T06:43:59;20.50;99.90
6581;DHT22;3324;50.796;7.228;2023-07-13T06:46:25;20.80;99.90
6581;DHT22;3324;50.796;7.228;2023-07-13T06:48:51;20.90;99.90
6581;DHT22;3324;50.796;7.228;2023-07-13T06:51:17;20.90;99.90
6581;DHT22;3324;50.796;7.228;2023-07-13T06:53:42;20.80;99.90
6581;DHT22;3324;50.796;7.228;2023-07-13T06:56:10;20.60;99.90
6581;DHT22;3324;50.796;7.228;2023-07-13T06:58:36;20.60;99.90
6581;DHT22;3324;50.796;7.228;2023-07-13T07:01:02;20.50;99.90
6581;DHT22;3324;50.796;7.228;2023-07-13T07:03:28;20.50;99.90
6581;DHT22;3324;50.796;7.228;2023-07-13T07:05:53;20.60;99.90
6581;DHT22;3324;50.796;7.228;2023-07-13T07:08:19;20.50;99.90
6581;DHT22;3324;50.796;7.228;2023-07-13T07:10:44;20.50;99.90
6581;DHT22;3324;50.796;7.228;2023-07-13T07:13:10;20.70;99.90
6581;DHT22;3324;50.796;7.228;2023-07-13T07:15:36;20.80;99.90
6581;DHT22;3324;50.796;7.228;2023-07-13T07:18:02;21.10;99.90
6581;DHT22;3324;50.796;7.228;2023-07-13T07:20:28;21.30;99.90
6581;DHT22;3324;50.796;7.228;2023-07-13T07:22:55;21.40;99.90
6581;DHT22;3324;50.796;7.228;2023-07-13T07:25:21;21.50;99.90
6581;DHT22;3324;50.796;7.228;2023-07-13T07:27:47;21.70;99.90
6581;DHT22;3324;50.796;7.228;2023-07-13T07:30:13;21.80;99.90
6581;DHT22;3324;50.796;7.228;2023-07-13T07:32:38;21.90;99.90
6581;DHT22;3324;50.796;7.228;2023-07-13T07:35:04;22.10;99.90
6581;DHT22;3324;50.796;7.228;2023-07-13T07:37:30;22.30;99.90
6581;DHT22;3324;50.796;7.228;2023-07-13T07:39:56;22.40;99.90
6581;DHT22;3324;50.796;7.228;2023-07-13T07:42:21;22.20;99.90
6581;DHT22;3324;50.796;7.228;2023-07-13T07:44:47;22.20;99.90
6581;DHT22;3324;50.796;7.228;2023-07-13T07:47:12;21.90;99.90
6581;DHT22;3324;50.796;7.228;2023-07-13T07:49:38;21.80;99.90
6581;DHT22;3324;50.796;7.228;2023-07-13T07:52:04;21.90;99.90
6581;DHT22;3324;50.796;7.228;2023-07-13T07:54:30;22.00;99.90
6581;DHT22;3324;50.796;7.228;2023-07-13T07:56:55;22.20;99.90
6581;DHT22;3324;50.796;7.228;2023-07-13T07:59:21;22.20;99.90
6581;DHT22;3324;50.796;7.228;2023-07-13T08:01:47;22.30;99.90
6581;DHT22;3324;50.796;7.228;2023-07-13T08:04:15;22.30;99.90
6581;DHT22;3324;50.796;7.228;2023-07-13T08:06:41;22.40;99.90
6581;DHT22;3324;50.796;7.228;2023-07-13T08:09:07;22.60;99.90
6581;DHT22;3324;50.796;7.228;2023-07-13T08:11:33;22.70;99.90
6581;DHT22;3324;50.796;7.228;2023-07-13T08:13:59;22.60;99.90
6581;DHT22;3324;50.796;7.228;2023-07-13T08:16:26;22.70;99.90
6581;DHT22;3324;50.796;7.228;2023-07-13T08:18:51;22.80;99.90
6581;DHT22;3324;50.796;7.228;2023-07-13T08:21:17;22.90;99.90
6581;DHT22;3324;50.796;7.228;2023-07-13T08:23:45;23.00;99.90
6581;DHT22;3324;50.796;7.228;2023-07-13T08:26:10;23.20;99.90
6581;DHT22;3324;50.796;7.228;2023-07-13T08:28:36;23.30;99.90
6581;DHT22;3324;50.796;7.228;2023-07-13T08:31:06;23.50;99.90
6581;DHT22;3324;50.796;7.228;2023-07-13T08:33:36;23.70;99.90
6581;DHT22;3324;50.796;7.228;2023-07-13T08:36:02;23.80;99.90
6581;DHT22;3324;50.796;7.228;2023-07-13T08:38:28;23.90;99.90
6581;DHT22;3324;50.796;7.228;2023-07-13T08:40:55;23.80;99.90
6581;DHT22;3324;50.796;7.228;2023-07-13T08:43:35;23.50;99.90
6581;DHT22;3324;50.796;7.228;2023-07-13T08:46:15;23.50;99.90
6581;DHT22;3324;50.796;7.228;2023-07-13T08:49:09;23.70;99.90
6581;DHT22;3324;50.796;7.228;2023-07-13T08:51:50;23.90;99.90
6581;DHT22;3324;50.796;7.228;2023-07-13T08:57:19;24.00;99.90
6581;DHT22;3324;50.796;7.228;2023-07-13T08:59:46;24.40;99.90
6581;DHT22;3324;50.796;7.228;2023-07-13T09:05:03;24.80;99.90
6581;DHT22;3324;50.796;7.228;2023-07-13T09:07:45;24.90;99.90
6581;DHT22;3324;50.796;7.228;2023-07-13T09:10:21;25.10;99.90
6581;DHT22;3324;50.796;7.228;2023-07-13T09:15:35;25.40;99.90
6581;DHT22;3324;50.796;7.228;2023-07-13T09:18:11;25.50;99.90
6581;DHT22;3324;50.796;7.228;2023-07-13T09:20:49;25.40;99.40
6581;DHT22;3324;50.796;7.228;2023-07-13T09:23:20;25.30;99.90
6581;DHT22;3324;50.796;7.228;2023-07-13T09:25:58;25.40;99.90
6581;DHT22;3324;50.796;7.228;2023-07-13T09:28:29;25.60;99.90
6581;DHT22;3324;50.796;7.228;2023-07-13T09:31:06;25.70;99.90
6581;DHT22;3324;50.796;7.228;2023-07-13T09:33:32;25.70;98.80
6581;DHT22;3324;50.796;7.228;2023-07-13T09:36:01;25.40;98.70
6581;DHT22;3324;50.796;7.228;2023-07-13T09:38:29;25.40;99.90
6581;DHT22;3324;50.796;7.228;2023-07-13T09:41:21;25.50;99.90
6581;DHT22;3324;50.796;7.228;2023-07-13T09:46:34;25.50;99.90
6581;DHT22;3324;50.796;7.228;2023-07-13T09:49:00;25.40;98.90
6581;DHT22;3324;50.796;7.228;2023-07-13T09:51:26;25.40;98.80
6581;DHT22;3324;50.796;7.228;2023-07-13T09:53:51;25.70;99.90
6581;DHT22;3324;50.796;7.228;2023-07-13T09:56:22;26.00;99.60
6581;DHT22;3324;50.796;7.228;2023-07-13T09:58:49;26.20;99.00
6581;DHT22;3324;50.796;7.228;2023-07-13T10:01:14;26.30;98.70
6581;DHT22;3324;50.796;7.228;2023-07-13T10:03:52;26.40;97.50
6581;DHT22;3324;50.796;7.228;2023-07-13T10:06:20;26.60;98.60
6581;DHT22;3324;50.796;7.228;2023-07-13T10:08:52;26.90;96.70
6581;DHT22;3324;50.796;7.228;2023-07-13T10:11:25;27.20;95.60
6581;DHT22;3324;50.796;7.228;2023-07-13T10:13:57;27.30;95.60
6581;DHT22;3324;50.796;7.228;2023-07-13T10:16:26;27.30;95.30
6581;DHT22;3324;50.796;7.228;2023-07-13T10:19:00;27.30;95.40
6581;DHT22;3324;50.796;7.228;2023-07-13T10:21:42;27.50;94.70
6581;DHT22;3324;50.796;7.228;2023-07-13T10:24:24;27.50;94.80
6581;DHT22;3324;50.796;7.228;2023-07-13T10:27:21;27.70;94.20
6581;DHT22;3324;50.796;7.228;2023-07-13T10:30:12;27.90;93.10
6581;DHT22;3324;50.796;7.228;2023-07-13T10:32:39;27.70;93.00
6581;DHT22;3324;50.796;7.228;2023-07-13T10:35:05;27.20;94.20
6581;DHT22;3324;50.796;7.228;2023-07-13T10:37:49;26.80;94.40
6581;DHT22;3324;50.796;7.228;2023-07-13T10:40:23;26.40;94.80
6581;DHT22;3324;50.796;7.228;2023-07-13T10:42:52;26.10;96.10
6581;DHT22;3324;50.796;7.228;2023-07-13T10:45:24;25.80;96.60
6581;DHT22;3324;50.796;7.228;2023-07-13T10:47:52;25.60;96.90
6581;DHT22;3324;50.796;7.228;2023-07-13T10:50:25;25.40;97.50
6581;DHT22;3324;50.796;7.228;2023-07-13T10:53:01;25.30;98.00
6581;DHT22;3324;50.796;7.228;2023-07-13T10:55:40;25.20;98.80
6581;DHT22;3324;50.796;7.228;2023-07-13T10:58:22;25.20;98.60
6581;DHT22;3324;50.796;7.228;2023-07-13T11:03:32;25.90;98.10
6581;DHT22;3324;50.796;7.228;2023-07-13T11:06:12;26.10;96.60
6581;DHT22;3324;50.796;7.228;2023-07-13T11:08:51;26.10;95.30
6581;DHT22;3324;50.796;7.228;2023-07-13T11:18:51;25.90;97.60
6581;DHT22;3324;50.796;7.228;2023-07-13T11:21:22;25.80;99.10
6581;DHT22;3324;50.796;7.228;2023-07-13T11:24:01;25.60;96.80
6581;DHT22;3324;50.796;7.228;2023-07-13T11:31:43;25.20;97.60
6581;DHT22;3324;50.796;7.228;2023-07-13T11:34:14;25.10;98.20
6581;DHT22;3324;50.796;7.228;2023-07-13T11:36:43;24.90;95.30
6581;DHT22;3324;50.796;7.228;2023-07-13T11:39:19;24.70;96.40
6581;DHT22;3324;50.796;7.228;2023-07-13T11:41:55;24.60;96.20
6581;DHT22;3324;50.796;7.228;2023-07-13T11:44:24;24.60;96.50
6581;DHT22;3324;50.796;7.228;2023-07-13T11:46:55;24.60;97.20
6581;DHT22;3324;50.796;7.228;2023-07-13T11:49:25;24.70;95.80
6581;DHT22;3324;50.796;7.228;2023-07-13T11:51:52;24.80;96.40
6581;DHT22;3324;50.796;7.228;2023-07-13T11:56:55;24.90;94.10
6581;DHT22;3324;50.796;7.228;2023-07-13T11:59:23;24.90;94.30
6581;DHT22;3324;50.796;7.228;2023-07-13T12:01:52;24.80;93.90
6581;DHT22;3324;50.796;7.228;2023-07-13T12:04:30;24.80;93.30
6581;DHT22;3324;50.796;7.228;2023-07-13T12:07:06;24.70;93.40
6581;DHT22;3324;50.796;7.228;2023-07-13T12:09:33;24.70;94.00
6581;DHT22;3324;50.796;7.228;2023-07-13T12:12:03;24.60;94.00
6581;DHT22;3324;50.796;7.228;2023-07-13T12:14:28;24.50;93.50
6581;DHT22;3324;50.796;7.228;2023-07-13T12:16:55;24.40;93.40
6581;DHT22;3324;50.796;7.228;2023-07-13T12:19:27;24.40;92.50
6581;DHT22;3324;50.796;7.228;2023-07-13T12:21:56;24.40;93.50
6581;DHT22;3324;50.796;7.228;2023-07-13T12:24:22;24.30;93.70
6581;DHT22;3324;50.796;7.228;2023-07-13T12:27:27;24.30;93.60
6581;DHT22;3324;50.796;7.228;2023-07-13T12:30:04;24.20;93.30
6581;DHT22;3324;50.796;7.228;2023-07-13T12:32:31;24.20;93.70
6581;DHT22;3324;50.796;7.228;2023-07-13T12:35:17;24.30;94.40
6581;DHT22;3324;50.796;7.228;2023-07-13T12:37:45;24.30;94.40
6581;DHT22;3324;50.796;7.228;2023-07-13T12:40:20;24.40;94.90
6581;DHT22;3324;50.796;7.228;2023-07-13T12:42:48;24.30;95.20
6581;DHT22;3324;50.796;7.228;2023-07-13T12:45:24;24.30;95.70
6581;DHT22;3324;50.796;7.228;2023-07-13T12:48:14;24.30;96.80
6581;DHT22;3324;50.796;7.228;2023-07-13T12:50:42;24.10;95.70
6581;DHT22;3324;50.796;7.228;2023-07-13T12:53:14;24.00;96.30
6581;DHT22;3324;50.796;7.228;2023-07-13T12:55:43;24.00;96.00
6581;DHT22;3324;50.796;7.228;2023-07-13T12:58:21;24.00;96.60
6581;DHT22;3324;50.796;7.228;2023-07-13T13:00:50;24.00;96.60
6581;DHT22;3324;50.796;7.228;2023-07-13T13:03:36;24.00;97.00
6581;DHT22;3324;50.796;7.228;2023-07-13T13:06:17;24.10;96.70
6581;DHT22;3324;50.796;7.228;2023-07-13T13:08:48;24.20;97.20
6581;DHT22;3324;50.796;7.228;2023-07-13T13:11:18;24.40;96.20
6581;DHT22;3324;50.796;7.228;2023-07-13T13:13:45;24.40;95.80
6581;DHT22;3324;50.796;7.228;2023-07-13T13:16:50;24.40;96.00
6581;DHT22;3324;50.796;7.228;2023-07-13T13:19:34;24.50;96.70
6581;DHT22;3324;50.796;7.228;2023-07-13T13:22:00;24.40;96.20
6581;DHT22;3324;50.796;7.228;2023-07-13T13:24:27;24.40;95.40
6581;DHT22;3324;50.796;7.228;2023-07-13T13:26:54;24.50;95.80
6581;DHT22;3324;50.796;7.228;2023-07-13T13:29:23;24.50;95.90
6581;DHT22;3324;50.796;7.228;2023-07-13T13:31:50;24.50;95.10
6581;DHT22;3324;50.796;7.228;2023-07-13T13:34:17;24.60;94.00
6581;DHT22;3324;50.796;7.228;2023-07-13T13:36:45;24.60;95.00
6581;DHT22;3324;50.796;7.228;2023-07-13T13:41:44;24.70;94.90
6581;DHT22;3324;50.796;7.228;2023-07-13T13:44:10;24.80;94.70
6581;DHT22;3324;50.796;7.228;2023-07-13T13:46:36;24.80;94.60
6581;DHT22;3324;50.796;7.228;2023-07-13T13:49:01;24.80;94.60
6581;DHT22;3324;50.796;7.228;2023-07-13T13:51:28;24.90;94.40
6581;DHT22;3324;50.796;7.228;2023-07-13T13:53:55;25.00;92.70
6581;DHT22;3324;50.796;7.228;2023-07-13T13:56:21;25.10;93.40
6581;DHT22;3324;50.796;7.228;2023-07-13T13:58:47;25.20;93.60
6581;DHT22;3324;50.796;7.228;2023-07-13T14:01:19;25.40;93.70
6581;DHT22;3324;50.796;7.228;2023-07-13T14:03:46;25.60;92.10
6581;DHT22;3324;50.796;7.228;2023-07-13T14:06:15;25.80;93.70
6581;DHT22;3324;50.796;7.228;2023-07-13T14:08:41;25.90;91.20
6581;DHT22;3324;50.796;7.228;2023-07-13T14:11:12;25.80;91.00
6581;DHT22;3324;50.796;7.228;2023-07-13T14:13:43;25.80;91.70
6581;DHT22;3324;50.796;7.228;2023-07-13T14:16:11;25.70;92.20
6581;DHT22;3324;50.796;7.228;2023-07-13T14:18:38;25.60;91.80
6581;DHT22;3324;50.796;7.228;2023-07-13T14:21:11;25.50;92.20
6581;DHT22;3324;50.796;7.228;2023-07-13T14:23:38;25.50;91.40
6581;DHT22;3324;50.796;7.228;2023-07-13T14:26:11;25.30;91.50
6581;DHT22;3324;50.796;7.228;2023-07-13T14:28:41;25.20;92.60
6581;DHT22;3324;50.796;7.228;2023-07-13T14:31:08;25.10;92.90
6581;DHT22;3324;50.796;7.228;2023-07-13T14:33:34;25.10;92.90
6581;DHT22;3324;50.796;7.228;2023-07-13T14:35:59;25.20;92.70
6581;DHT22;3324;50.796;7.228;2023-07-13T14:38:25;25.40;92.90
6581;DHT22;3324;50.796;7.228;2023-07-13T14:40:51;25.60;91.10
6581;DHT22;3324;50.796;7.228;2023-07-13T14:43:17;25.80;91.20
6581;DHT22;3324;50.796;7.228;2023-07-13T14:45:46;25.80;89.80
6581;DHT22;3324;50.796;7.228;2023-07-13T14:48:17;25.90;90.90
6581;DHT22;3324;50.796;7.228;2023-07-13T14:50:44;25.90;91.10
6581;DHT22;3324;50.796;7.228;2023-07-13T14:53:12;25.90;90.90
6581;DHT22;3324;50.796;7.228;2023-07-13T14:55:38;25.90;90.40
6581;DHT22;3324;50.796;7.228;2023-07-13T14:58:04;25.90;91.10
6581;DHT22;3324;50.796;7.228;2023-07-13T15:00:29;25.90;90.90
6581;DHT22;3324;50.796;7.228;2023-07-13T15:02:57;25.90;88.80
6581;DHT22;3324;50.796;7.228;2023-07-13T15:05:26;25.70;89.30
6581;DHT22;3324;50.796;7.228;2023-07-13T15:07:53;25.70;89.20
6581;DHT22;3324;50.796;7.228;2023-07-13T15:10:21;25.50;89.80
6581;DHT22;3324;50.796;7.228;2023-07-13T15:12:47;25.50;90.20
6581;DHT22;3324;50.796;7.228;2023-07-13T15:15:13;25.60;89.80
6581;DHT22;3324;50.796;7.228;2023-07-13T15:17:44;25.60;88.10
6581;DHT22;3324;50.796;7.228;2023-07-13T15:20:22;25.60;90.20
6581;DHT22;3324;50.796;7.228;2023-07-13T15:22:49;25.70;90.40
6581;DHT22;3324;50.796;7.228;2023-07-13T15:25:26;25.70;90.40
6581;DHT22;3324;50.796;7.228;2023-07-13T15:27:55;25.70;91.10
6581;DHT22;3324;50.796;7.228;2023-07-13T15:30:22;25.70;90.40
6581;DHT22;3324;50.796;7.228;2023-07-13T15:32:50;25.80;88.80
6581;DHT22;3324;50.796;7.228;2023-07-13T15:35:27;25.70;89.20
6581;DHT22;3324;50.796;7.228;2023-07-13T15:37:53;25.60;88.00
6581;DHT22;3324;50.796;7.228;2023-07-13T15:40:19;25.50;87.10
6581;DHT22;3324;50.796;7.228;2023-07-13T15:42:47;25.40;87.50
6581;DHT22;3324;50.796;7.228;2023-07-13T15:45:21;25.20;88.60
6581;DHT22;3324;50.796;7.228;2023-07-13T15:47:48;25.20;88.80
6581;DHT22;3324;50.796;7.228;2023-07-13T15:50:21;25.20;90.70
6581;DHT22;3324;50.796;7.228;2023-07-13T15:52:52;25.40;86.40
6581;DHT22;3324;50.796;7.228;2023-07-13T15:55:19;25.30;86.90
6581;DHT22;3324;50.796;7.228;2023-07-13T15:57:47;25.30;88.30
6581;DHT22;3324;50.796;7.228;2023-07-13T16:02:46;25.40;88.80
6581;DHT22;3324;50.796;7.228;2023-07-13T16:05:12;25.30;89.70
6581;DHT22;3324;50.796;7.228;2023-07-13T16:07:37;25.30;90.60
6581;DHT22;3324;50.796;7.228;2023-07-13T16:10:03;25.30;88.10
6581;DHT22;3324;50.796;7.228;2023-07-13T16:12:29;25.30;89.10
6581;DHT22;3324;50.796;7.228;2023-07-13T16:14:55;25.20;90.20
6581;DHT22;3324;50.796;7.228;2023-07-13T16:17:20;25.20;90.30
6581;DHT22;3324;50.796;7.228;2023-07-13T16:19:46;25.00;90.00
6581;DHT22;3324;50.796;7.228;2023-07-13T16:22:16;24.90;90.40
6581;DHT22;3324;50.796;7.228;2023-07-13T16:24:42;24.90;91.40
6581;DHT22;3324;50.796;7.228;2023-07-13T16:27:11;24.90;91.40
6581;DHT22;3324;50.796;7.228;2023-07-13T16:29:36;24.80;91.40
6581;DHT22;3324;50.796;7.228;2023-07-13T16:32:13;24.80;91.50
6581;DHT22;3324;50.796;7.228;2023-07-13T16:34:41;24.70;92.60
6581;DHT22;3324;50.796;7.228;2023-07-13T16:37:19;24.50;92.10
6581;DHT22;3324;50.796;7.228;2023-07-13T16:39:50;24.50;92.80
6581;DHT22;3324;50.796;7.228;2023-07-13T16:42:18;24.40;93.10
6581;DHT22;3324;50.796;7.228;2023-07-13T16:44:44;24.40;92.50
6581;DHT22;3324;50.796;7.228;2023-07-13T16:47:15;24.50;93.40